createdAt,value
2018-10-02T00:00:56.208Z,8.67
2018-10-02T00:03:24.797Z,8.67
2018-10-02T00:05:53.369Z,8.65
2018-10-02T00:08:21.932Z,8.58
2018-10-02T00:10:55.687Z,8.54
2018-10-02T00:13:29.512Z,8.58
2018-10-02T00:15:58.064Z,8.55
2018-10-02T00:18:26.654Z,8.54
2018-10-02T00:20:55.192Z,8.41
2018-10-02T00:23:23.768Z,8.42
2018-10-02T00:25:52.319Z,8.46
2018-10-02T00:28:20.903Z,8.47
2018-10-02T00:30:49.431Z,8.44
2018-10-02T00:33:17.997Z,8.44
2018-10-02T00:35:46.536Z,8.44
2018-10-02T00:38:15.107Z,8.45
2018-10-02T00:40:43.672Z,8.44
2018-10-02T00:43:12.280Z,8.43
2018-10-02T00:45:40.837Z,8.35
2018-10-02T00:48:09.668Z,8.36
2018-10-02T00:50:38.216Z,8.39
2018-10-02T00:53:06.856Z,8.39
2018-10-02T00:55:35.411Z,8.34
2018-10-02T00:58:03.989Z,8.30
2018-10-02T01:00:32.661Z,8.24
2018-10-02T01:03:01.200Z,8.23
2018-10-02T01:05:29.788Z,8.25
2018-10-02T01:07:58.320Z,8.20
2018-10-02T01:10:26.904Z,8.28
2018-10-02T01:12:55.486Z,8.38
2018-10-02T01:15:24.068Z,8.47
2018-10-02T01:17:52.619Z,8.43
2018-10-02T01:20:21.281Z,8.48
2018-10-02T01:22:49.840Z,8.41
2018-10-02T01:25:18.452Z,8.45
2018-10-02T01:27:47.002Z,8.42
2018-10-02T01:30:15.557Z,8.43
2018-10-02T01:32:44.092Z,8.45
2018-10-02T01:35:12.652Z,8.42
2018-10-02T01:37:41.213Z,8.33
2018-10-02T01:40:09.784Z,8.33
2018-10-02T01:42:38.317Z,8.26
2018-10-02T01:45:07.456Z,8.25
2018-10-02T01:47:35.968Z,8.24
2018-10-02T01:50:04.665Z,8.15
2018-10-02T01:52:33.188Z,8.14
2018-10-02T01:55:01.756Z,8.12
2018-10-02T01:57:30.283Z,8.06
2018-10-02T01:59:59.083Z,8.05
2018-10-02T02:02:27.604Z,7.95
2018-10-02T02:04:56.172Z,7.97
2018-10-02T02:07:24.714Z,7.86
2018-10-02T02:09:53.255Z,7.78
2018-10-02T02:12:21.784Z,7.70
2018-10-02T02:14:50.339Z,7.81
2018-10-02T02:17:18.843Z,7.85
2018-10-02T02:19:47.429Z,7.98
2018-10-02T02:22:15.950Z,8.01
2018-10-02T02:24:44.487Z,8.03
2018-10-02T02:27:13.013Z,8.05
2018-10-02T02:29:41.596Z,8.07
2018-10-02T02:32:10.119Z,7.95
2018-10-02T02:34:38.673Z,7.92
2018-10-02T02:37:07.567Z,7.87
2018-10-02T02:39:36.124Z,7.72
2018-10-02T02:42:04.683Z,7.67
2018-10-02T02:44:33.209Z,7.70
2018-10-02T02:47:07.080Z,7.60
2018-10-02T02:49:40.756Z,7.55
2018-10-02T02:52:09.396Z,7.53
2018-10-02T02:54:37.941Z,7.51
2018-10-02T02:57:06.920Z,7.46
2018-10-02T02:59:35.451Z,7.36
2018-10-02T03:02:04.021Z,7.44
2018-10-02T03:04:32.545Z,7.45
2018-10-02T03:07:01.102Z,7.40
2018-10-02T03:09:29.644Z,7.41
2018-10-02T03:11:58.220Z,7.35
2018-10-02T03:14:26.753Z,7.25
2018-10-02T03:16:55.303Z,7.19
2018-10-02T03:19:23.842Z,7.16
2018-10-02T03:21:52.500Z,7.08
2018-10-02T03:24:20.944Z,6.98
2018-10-02T03:26:49.521Z,6.92
2018-10-02T03:29:18.067Z,6.83
2018-10-02T03:31:46.630Z,6.72
2018-10-02T03:34:15.185Z,6.57
2018-10-02T03:36:43.754Z,6.51
2018-10-02T03:39:12.294Z,6.37
2018-10-02T03:41:40.885Z,6.19
2018-10-02T03:44:09.635Z,6.14
2018-10-02T03:46:38.200Z,6.15
2018-10-02T03:49:06.898Z,6.09
2018-10-02T03:51:35.481Z,5.94
2018-10-02T03:54:04.024Z,5.83
2018-10-02T03:56:32.608Z,5.85
2018-10-02T03:59:01.148Z,5.75
2018-10-02T04:01:29.719Z,5.73
2018-10-02T04:03:58.253Z,5.74
2018-10-02T04:06:26.832Z,5.78
2018-10-02T04:08:55.363Z,5.72
2018-10-02T04:11:23.914Z,5.71
2018-10-02T04:13:52.432Z,5.74
2018-10-02T04:16:21.008Z,5.65
2018-10-02T04:18:49.550Z,5.60
2018-10-02T04:21:22.268Z,5.59
2018-10-02T04:23:50.815Z,5.51
2018-10-02T04:26:19.371Z,5.52
2018-10-02T04:28:47.916Z,5.51
2018-10-02T04:31:16.442Z,5.51
2018-10-02T04:33:45.056Z,5.57
2018-10-02T04:36:13.576Z,5.54
2018-10-02T04:38:42.144Z,5.57
2018-10-02T04:41:10.716Z,5.54
2018-10-02T04:43:39.304Z,5.50
2018-10-02T04:46:07.965Z,5.41
2018-10-02T04:48:36.552Z,5.39
2018-10-02T04:51:05.094Z,5.51
2018-10-02T04:53:34.117Z,5.53
2018-10-02T04:56:02.842Z,5.52
2018-10-02T04:58:31.363Z,5.58
2018-10-02T05:01:00.316Z,5.55
2018-10-02T05:03:28.868Z,5.46
2018-10-02T05:05:57.484Z,5.52
2018-10-02T05:08:26.105Z,5.55
2018-10-02T05:10:54.615Z,5.46
2018-10-02T05:13:23.173Z,5.51
2018-10-02T05:15:52.072Z,5.41
2018-10-02T05:18:20.640Z,5.35
2018-10-02T05:20:49.337Z,5.35
2018-10-02T05:23:17.847Z,5.41
2018-10-02T05:25:46.374Z,5.35
2018-10-02T05:28:14.929Z,5.56
2018-10-02T05:30:43.484Z,5.61
2018-10-02T05:33:12.731Z,5.63
2018-10-02T05:35:41.313Z,5.47
2018-10-02T05:38:09.956Z,5.60
2018-10-02T05:40:38.605Z,5.49
2018-10-02T05:43:07.204Z,5.57
2018-10-02T05:45:35.737Z,5.70
2018-10-02T05:48:05.157Z,5.80
2018-10-02T05:50:33.828Z,5.93
2018-10-02T05:53:02.373Z,5.86
2018-10-02T05:55:36.201Z,5.74
2018-10-02T05:58:04.807Z,5.65
2018-10-02T06:00:33.335Z,5.71
2018-10-02T06:03:01.895Z,5.98
2018-10-02T06:05:30.437Z,6.11
2018-10-02T06:07:59.056Z,6.24
2018-10-02T06:10:27.597Z,6.25
2018-10-02T06:12:56.154Z,6.44
2018-10-02T06:15:24.712Z,6.54
2018-10-02T06:17:53.301Z,6.50
2018-10-02T06:20:21.868Z,6.34
2018-10-02T06:22:50.419Z,6.26
2018-10-02T06:25:19.013Z,6.00
2018-10-02T06:27:47.533Z,5.87
2018-10-02T06:30:16.177Z,5.67
2018-10-02T06:32:44.865Z,5.68
2018-10-02T06:35:13.380Z,5.94
2018-10-02T06:37:41.909Z,5.99
2018-10-02T06:40:10.500Z,6.04
2018-10-02T06:42:39.050Z,6.32
2018-10-02T06:45:08.678Z,6.60
2018-10-02T06:47:37.326Z,6.74
2018-10-02T06:50:05.954Z,6.74
2018-10-02T06:52:34.754Z,6.92
2018-10-02T06:55:03.112Z,7.01
2018-10-02T06:57:31.638Z,7.11
2018-10-02T07:00:00.192Z,7.29
2018-10-02T07:02:28.836Z,7.24
2018-10-02T07:04:57.374Z,7.09
2018-10-02T07:07:25.985Z,7.04
2018-10-02T07:09:54.555Z,7.41
2018-10-02T07:12:23.093Z,8.02
2018-10-02T07:14:51.673Z,8.28
2018-10-02T07:17:20.240Z,8.14
2018-10-02T07:19:48.925Z,7.83
2018-10-02T07:22:17.480Z,8.27
2018-10-02T07:24:46.518Z,10.00
2018-10-02T07:27:15.413Z,11.21
2018-10-02T07:29:43.997Z,11.59
2018-10-02T07:32:12.609Z,14.02
2018-10-02T07:34:45.640Z,14.35
2018-10-02T07:37:14.439Z,14.71
2018-10-02T07:39:43.009Z,15.69
2018-10-02T07:42:11.689Z,17.64
2018-10-02T07:44:40.405Z,16.44
2018-10-02T07:47:08.961Z,15.24
2018-10-02T07:49:37.615Z,13.72
2018-10-02T07:52:06.164Z,12.21
2018-10-02T07:54:34.740Z,11.82
2018-10-02T07:57:03.300Z,11.01
2018-10-02T07:59:31.857Z,10.43
2018-10-02T08:02:00.436Z,9.94
2018-10-02T08:07:03.573Z,9.93
2018-10-02T08:09:32.112Z,9.42
2018-10-02T08:12:00.681Z,9.61
2018-10-02T08:14:29.249Z,10.76
2018-10-02T08:16:57.792Z,11.04
2018-10-02T08:19:26.328Z,10.83
2018-10-02T08:21:54.885Z,10.57
2018-10-02T08:24:23.408Z,10.03
2018-10-02T08:26:52.038Z,9.71
2018-10-02T08:29:20.579Z,9.18
2018-10-02T08:31:49.109Z,8.92
2018-10-02T08:34:17.625Z,8.75
2018-10-02T08:36:46.189Z,8.64
2018-10-02T08:39:14.736Z,9.02
2018-10-02T08:41:43.355Z,9.71
2018-10-02T08:44:11.852Z,10.58
2018-10-02T08:46:40.415Z,10.80
2018-10-02T08:49:08.965Z,10.81
2018-10-02T08:51:37.602Z,10.51
2018-10-02T08:54:06.218Z,9.70
2018-10-02T08:56:34.745Z,9.74
2018-10-02T08:59:03.278Z,11.55
2018-10-02T09:01:31.845Z,13.04
2018-10-02T09:04:00.368Z,13.72
2018-10-02T09:06:33.344Z,14.77
2018-10-02T09:09:02.028Z,15.87
2018-10-02T09:11:30.581Z,14.13
2018-10-02T09:13:59.161Z,12.36
2018-10-02T09:16:27.774Z,12.09
2018-10-02T09:18:56.363Z,11.71
2018-10-02T09:21:24.935Z,11.05
2018-10-02T09:23:53.533Z,11.18
2018-10-02T09:26:22.061Z,11.48
2018-10-02T09:28:50.601Z,11.57
2018-10-02T09:31:24.349Z,12.24
2018-10-02T09:33:58.285Z,11.95
2018-10-02T09:36:32.141Z,12.54
2018-10-02T09:39:05.803Z,12.63
2018-10-02T09:41:39.590Z,11.70
2018-10-02T09:44:08.545Z,11.18
2018-10-02T09:46:37.149Z,10.86
2018-10-02T09:49:05.706Z,10.68
2018-10-02T09:51:34.266Z,10.60
2018-10-02T09:54:02.859Z,10.22
2018-10-02T09:56:36.740Z,10.32
2018-10-02T09:59:05.312Z,10.48
2018-10-02T10:01:39.160Z,10.57
2018-10-02T10:04:07.842Z,10.66
2018-10-02T10:06:36.348Z,10.73
2018-10-02T10:09:05.804Z,10.98
2018-10-02T10:11:34.344Z,11.29
2018-10-02T10:14:02.945Z,11.83
2018-10-02T10:16:31.489Z,12.12
2018-10-02T10:19:00.121Z,12.15
2018-10-02T10:21:28.649Z,12.08
2018-10-02T10:23:57.225Z,11.89
2018-10-02T10:26:25.808Z,11.76
2018-10-02T10:28:54.398Z,11.19
2018-10-02T10:31:22.942Z,11.62
2018-10-02T10:33:51.536Z,11.19
2018-10-02T10:36:20.086Z,11.11
2018-10-02T10:38:48.664Z,10.75
2018-10-02T10:41:17.215Z,10.65
2018-10-02T10:43:45.772Z,10.93
2018-10-02T10:46:14.304Z,10.96
2018-10-02T10:48:42.893Z,11.21
2018-10-02T10:51:11.428Z,11.12
2018-10-02T10:53:40.009Z,10.93
2018-10-02T10:56:08.827Z,11.11
2018-10-02T10:58:37.418Z,11.11
2018-10-02T11:01:05.968Z,10.74
2018-10-02T11:03:34.553Z,10.72
2018-10-02T11:06:03.084Z,10.82
2018-10-02T11:08:31.641Z,10.88
2018-10-02T11:11:00.182Z,10.81
2018-10-02T11:13:28.751Z,10.70
2018-10-02T11:15:57.305Z,10.82
2018-10-02T11:18:25.886Z,10.82
2018-10-02T11:20:54.582Z,10.79
2018-10-02T11:23:23.231Z,10.75
2018-10-02T11:25:51.841Z,10.43
2018-10-02T11:28:20.393Z,10.48
2018-10-02T11:30:48.954Z,10.63
2018-10-02T11:33:17.558Z,10.59
2018-10-02T11:35:46.194Z,10.63
2018-10-02T11:38:14.848Z,11.76
2018-10-02T11:40:43.476Z,12.03
2018-10-02T11:43:12.095Z,12.32
2018-10-02T11:45:40.694Z,12.06
2018-10-02T11:48:09.273Z,11.60
2018-10-02T11:50:37.891Z,11.52
2018-10-02T11:53:06.858Z,11.32
2018-10-02T11:55:35.570Z,11.22
2018-10-02T11:58:04.128Z,11.17
2018-10-02T12:00:32.820Z,11.93
2018-10-02T12:03:01.609Z,12.38
2018-10-02T12:05:30.232Z,12.52
2018-10-02T12:07:58.818Z,12.54
2018-10-02T12:10:27.411Z,12.51
2018-10-02T12:12:56.025Z,12.72
2018-10-02T12:15:24.650Z,12.75
2018-10-02T12:17:53.245Z,12.74
2018-10-02T12:20:21.875Z,12.29
2018-10-02T12:22:50.424Z,11.67
2018-10-02T12:25:19.008Z,11.46
2018-10-02T12:27:47.649Z,11.29
2018-10-02T12:30:16.680Z,11.35
2018-10-02T12:32:45.450Z,11.48
2018-10-02T12:35:14.236Z,11.44
2018-10-02T12:37:42.813Z,11.51
2018-10-02T12:40:11.996Z,11.90
2018-10-02T12:42:46.407Z,12.09
2018-10-02T12:45:15.155Z,12.21
2018-10-02T12:47:43.854Z,12.03
2018-10-02T12:50:13.015Z,12.03
2018-10-02T12:52:41.763Z,12.05
2018-10-02T12:55:10.438Z,11.77
2018-10-02T12:57:39.047Z,11.72
2018-10-02T13:00:07.758Z,11.73
2018-10-02T13:02:36.360Z,11.72
2018-10-02T13:05:05.640Z,11.84
2018-10-02T13:07:34.541Z,12.01
2018-10-02T13:10:03.250Z,12.21
2018-10-02T13:12:31.826Z,12.31
2018-10-02T13:15:00.437Z,12.30
2018-10-02T13:17:29.005Z,12.57
2018-10-02T13:19:57.595Z,12.53
2018-10-02T13:22:26.165Z,12.45
2018-10-02T13:24:54.736Z,12.33
2018-10-02T13:27:23.349Z,12.06
2018-10-02T13:29:52.479Z,12.09
2018-10-02T13:32:21.143Z,11.93
2018-10-02T13:34:49.745Z,12.06
2018-10-02T13:37:18.663Z,12.20
2018-10-02T13:39:47.244Z,12.15
2018-10-02T13:42:15.891Z,12.07
2018-10-02T13:44:44.440Z,12.14
2018-10-02T13:47:13.043Z,12.00
2018-10-02T13:49:41.584Z,12.05
2018-10-02T13:52:10.186Z,12.07
2018-10-02T13:54:38.749Z,12.21
2018-10-02T13:57:07.337Z,12.05
2018-10-02T13:59:35.885Z,12.18
2018-10-02T14:02:04.545Z,11.87
2018-10-02T14:04:33.172Z,11.65
2018-10-02T14:07:01.765Z,11.60
2018-10-02T14:09:30.301Z,11.63
2018-10-02T14:11:59.012Z,11.73
2018-10-02T14:14:27.588Z,11.54
2018-10-02T14:16:56.153Z,11.48
2018-10-02T14:19:24.793Z,11.39
2018-10-02T14:21:53.365Z,11.49
2018-10-02T14:24:21.907Z,11.60
2018-10-02T14:26:50.502Z,11.68
2018-10-02T14:29:19.042Z,11.91
2018-10-02T14:31:47.616Z,11.98
2018-10-02T14:34:16.161Z,12.05
2018-10-02T14:36:44.818Z,12.03
2018-10-02T14:39:13.285Z,12.05
2018-10-02T14:41:41.846Z,12.06
2018-10-02T14:44:10.374Z,12.19
2018-10-02T14:46:38.968Z,12.08
2018-10-02T14:49:07.524Z,12.00
2018-10-02T14:51:36.093Z,11.90
2018-10-02T14:54:04.678Z,11.92
2018-10-02T14:56:33.228Z,11.95
2018-10-02T14:59:01.783Z,11.83
2018-10-02T15:01:30.480Z,11.96
2018-10-02T15:03:59.037Z,11.93
2018-10-02T15:06:27.641Z,11.96
2018-10-02T15:08:56.186Z,12.15
2018-10-02T15:11:24.812Z,12.36
2018-10-02T15:13:53.437Z,12.17
2018-10-02T15:16:22.013Z,12.16
2018-10-02T15:18:50.572Z,11.99
2018-10-02T15:21:19.278Z,11.72
2018-10-02T15:23:47.874Z,11.72
2018-10-02T15:26:16.404Z,11.66
2018-10-02T15:28:45.059Z,11.57
2018-10-02T15:31:13.643Z,11.56
2018-10-02T15:33:42.216Z,11.58
2018-10-02T15:36:10.800Z,11.57
2018-10-02T15:38:39.385Z,11.66
2018-10-02T15:41:07.965Z,11.66
2018-10-02T15:43:36.551Z,11.54
2018-10-02T15:46:05.089Z,11.54
2018-10-02T15:48:33.697Z,11.59
2018-10-02T15:51:02.291Z,11.49
2018-10-02T15:53:30.857Z,11.45
2018-10-02T15:56:00.314Z,11.31
2018-10-02T15:58:28.912Z,11.44
2018-10-02T16:00:57.509Z,11.31
2018-10-02T16:03:26.227Z,11.38
2018-10-02T16:05:54.797Z,11.26
2018-10-02T16:08:23.437Z,11.31
2018-10-02T16:10:52.110Z,11.20
2018-10-02T16:13:20.832Z,11.15
2018-10-02T16:15:49.396Z,11.07
2018-10-02T16:18:18.068Z,11.09
2018-10-02T16:20:46.597Z,11.08
2018-10-02T16:23:15.813Z,11.14
2018-10-02T16:25:44.430Z,11.18
2018-10-02T16:28:13.063Z,11.16
2018-10-02T16:30:41.642Z,11.05
2018-10-02T16:33:10.262Z,11.10
2018-10-02T16:35:38.845Z,10.96
2018-10-02T16:38:07.558Z,11.06
2018-10-02T16:40:36.128Z,11.02
2018-10-02T16:43:04.752Z,10.95
2018-10-02T16:45:33.345Z,10.94
2018-10-02T16:48:02.002Z,10.87
2018-10-02T16:50:30.617Z,10.92
2018-10-02T16:52:59.177Z,10.89
2018-10-02T16:55:27.866Z,10.90
2018-10-02T16:57:56.478Z,10.81
2018-10-02T17:00:25.135Z,10.74
2018-10-02T17:02:53.745Z,10.72
2018-10-02T17:05:22.364Z,10.77
2018-10-02T17:07:50.928Z,10.63
2018-10-02T17:10:19.557Z,10.75
2018-10-02T17:12:48.173Z,10.62
2018-10-02T17:15:16.822Z,10.69
2018-10-02T17:17:45.380Z,10.59
2018-10-02T17:20:13.988Z,10.69
2018-10-02T17:22:42.574Z,10.64
2018-10-02T17:25:11.201Z,10.72
2018-10-02T17:27:39.926Z,10.70
2018-10-02T17:30:08.537Z,10.73
2018-10-02T17:32:37.173Z,10.80
2018-10-02T17:35:05.830Z,10.76
2018-10-02T17:37:34.462Z,10.66
2018-10-02T17:40:03.139Z,10.72
2018-10-02T17:42:31.697Z,10.68
2018-10-02T17:45:00.344Z,10.66
2018-10-02T17:47:29.206Z,10.73
2018-10-02T17:49:57.807Z,10.62
2018-10-02T17:52:26.369Z,10.77
2018-10-02T17:54:55.093Z,10.81
2018-10-02T17:57:23.641Z,10.94
2018-10-02T17:59:52.238Z,10.98
2018-10-02T18:02:20.871Z,11.03
2018-10-02T18:04:49.496Z,10.90
2018-10-02T18:07:18.279Z,10.94
2018-10-02T18:09:46.909Z,10.98
2018-10-02T18:12:15.507Z,10.98
2018-10-02T18:14:44.139Z,11.03
2018-10-02T18:17:12.725Z,11.11
2018-10-02T18:19:41.396Z,11.17
2018-10-02T18:22:10.042Z,11.25
2018-10-02T18:24:38.652Z,11.19
2018-10-02T18:27:07.258Z,11.12
2018-10-02T18:29:35.916Z,11.07
2018-10-02T18:32:04.480Z,11.21
2018-10-02T18:34:33.072Z,11.25
2018-10-02T18:37:01.675Z,11.10
2018-10-02T18:39:30.264Z,11.16
2018-10-02T18:41:58.862Z,11.21
2018-10-02T18:44:27.429Z,11.05
2018-10-02T18:46:56.261Z,11.08
2018-10-02T18:49:24.823Z,11.16
2018-10-02T18:51:53.433Z,11.07
2018-10-02T18:54:21.996Z,11.01
2018-10-02T18:56:50.636Z,11.03
2018-10-02T18:59:19.840Z,10.90
2018-10-02T19:01:48.782Z,10.89
2018-10-02T19:04:17.342Z,10.88
2018-10-02T19:06:46.037Z,10.90
2018-10-02T19:09:16.756Z,10.76
2018-10-02T19:11:50.532Z,10.76
2018-10-02T19:14:19.924Z,10.82
2018-10-02T19:16:49.181Z,10.68
2018-10-02T19:19:22.925Z,10.73
2018-10-02T19:21:51.549Z,10.73
2018-10-02T19:24:20.139Z,10.70
2018-10-02T19:26:48.728Z,10.74
2018-10-02T19:29:17.326Z,10.70
2018-10-02T19:31:51.048Z,10.63
2018-10-02T19:34:19.602Z,10.65
2018-10-02T19:36:48.209Z,10.73
2018-10-02T19:39:22.642Z,10.76
2018-10-02T19:41:51.697Z,10.75
2018-10-02T19:44:20.289Z,10.72
2018-10-02T19:47:03.083Z,10.78
2018-10-02T19:49:33.064Z,10.80
2018-10-02T19:52:06.763Z,10.77
2018-10-02T19:54:35.350Z,10.73
2018-10-02T19:57:04.129Z,10.74
2018-10-02T19:59:32.681Z,10.79
2018-10-02T20:02:01.274Z,10.79
2018-10-02T20:04:29.865Z,10.79
2018-10-02T20:06:58.526Z,10.77
2018-10-02T20:09:27.089Z,10.83
2018-10-02T20:11:55.700Z,10.80
2018-10-02T20:14:24.284Z,10.80
2018-10-02T20:16:52.868Z,10.76
2018-10-02T20:19:21.420Z,10.73
2018-10-02T20:21:50.041Z,10.71
2018-10-02T20:24:18.687Z,10.75
2018-10-02T20:26:47.268Z,10.69
2018-10-02T20:29:15.909Z,10.74
2018-10-02T20:31:47.144Z,10.73
2018-10-02T20:34:15.780Z,10.71
2018-10-02T20:36:44.373Z,10.65
2018-10-02T20:39:13.465Z,10.64
2018-10-02T20:41:42.039Z,10.70
2018-10-02T20:44:10.850Z,10.62
2018-10-02T20:46:39.428Z,10.61
2018-10-02T20:49:08.163Z,10.66
2018-10-02T20:51:36.649Z,10.62
2018-10-02T20:54:05.248Z,10.62
2018-10-02T20:56:33.862Z,10.57
2018-10-02T20:59:02.489Z,10.58
2018-10-02T21:01:31.153Z,10.59
2018-10-02T21:03:59.784Z,10.55
2018-10-02T21:06:28.386Z,10.52
2018-10-02T21:08:56.998Z,10.55
2018-10-02T21:11:25.552Z,10.58
2018-10-02T21:13:54.142Z,10.57
2018-10-02T21:16:22.719Z,10.53
2018-10-02T21:18:51.314Z,10.60
2018-10-02T21:21:21.375Z,10.62
2018-10-02T21:23:49.981Z,10.51
2018-10-02T21:26:18.569Z,10.51
2018-10-02T21:28:47.204Z,10.54
2018-10-02T21:31:15.752Z,10.61
2018-10-02T21:33:44.366Z,10.53
2018-10-02T21:36:12.940Z,10.57
2018-10-02T21:38:41.507Z,10.48
2018-10-02T21:41:10.078Z,10.46
2018-10-02T21:43:38.687Z,10.41
2018-10-02T21:46:07.330Z,10.39
2018-10-02T21:48:35.963Z,10.39
2018-10-02T21:51:04.543Z,10.35
2018-10-02T21:53:33.151Z,10.37
2018-10-02T21:56:01.907Z,10.39
2018-10-02T21:58:30.516Z,10.44
2018-10-02T22:01:03.924Z,10.47
2018-10-02T22:03:33.856Z,10.43
2018-10-02T22:06:02.449Z,10.45
2018-10-02T22:08:31.250Z,10.43
2018-10-02T22:10:59.860Z,10.49
2018-10-02T22:13:28.559Z,10.50
2018-10-02T22:15:58.062Z,10.52
2018-10-02T22:18:28.176Z,10.57
2018-10-02T22:20:56.904Z,10.61
2018-10-02T22:23:25.816Z,10.68
2018-10-02T22:25:54.412Z,10.74
2018-10-02T22:28:22.978Z,10.81
2018-10-02T22:30:51.604Z,10.73
2018-10-02T22:33:20.189Z,10.62
2018-10-02T22:35:48.760Z,10.64
2018-10-02T22:38:17.324Z,10.60
2018-10-02T22:40:45.904Z,10.56
2018-10-02T22:43:14.489Z,10.65
2018-10-02T22:45:43.092Z,10.66
2018-10-02T22:48:11.659Z,10.62
2018-10-02T22:50:40.288Z,10.71
2018-10-02T22:53:08.840Z,10.72
2018-10-02T22:55:37.444Z,10.73
2018-10-02T22:58:06.353Z,10.87
2018-10-02T23:00:34.983Z,10.77
2018-10-02T23:03:03.556Z,10.85
2018-10-02T23:05:32.164Z,10.77
2018-10-02T23:08:00.725Z,10.82
2018-10-02T23:10:29.282Z,10.97
2018-10-02T23:12:57.820Z,10.93
2018-10-02T23:15:26.402Z,10.96
2018-10-02T23:17:54.990Z,10.93
2018-10-02T23:20:23.576Z,10.89
2018-10-02T23:22:52.388Z,10.87
2018-10-02T23:25:20.986Z,10.75
2018-10-02T23:27:49.619Z,10.83
2018-10-02T23:30:18.196Z,10.76
2018-10-02T23:32:46.833Z,10.78
2018-10-02T23:35:15.428Z,10.87
2018-10-02T23:37:44.040Z,10.85
2018-10-02T23:40:12.624Z,10.83
2018-10-02T23:42:41.160Z,10.76
2018-10-02T23:45:09.728Z,10.84
2018-10-02T23:47:38.284Z,10.81
2018-10-02T23:50:06.912Z,10.83
2018-10-02T23:52:35.459Z,10.80
2018-10-02T23:55:04.064Z,10.82
2018-10-02T23:57:32.641Z,10.80
